Time;durP1;ratioP1;P1;durP2;ratioP2;P2;SDS_P1;SDS_P2;PMS_P1;PMS_P2;Temp;Humidity;BMP_temperature;BMP_pressure;BME280_temperature;BME280_humidity;BME280_pressure;Samples;Min_cycle;Max_cycle;Signal;HPM_P1;HPM_P2
2022/09/27 00:00:42;;;;;;;12.00;1.70;;;10.10;99.90;;;;;;5099364;28;20051;-68
2022/09/27 00:03:11;;;;;;;5.68;1.38;;;10.10;99.90;;;;;;5115048;28;20047;-69
2022/09/27 00:05:37;;;;;;;7.38;2.33;;;10.10;99.90;;;;;;5117632;28;20044;-68
2022/09/27 00:08:03;;;;;;;5.80;1.20;;;10.00;99.90;;;;;;5116860;28;20126;-68
2022/09/27 00:10:30;;;;;;;5.43;1.17;;;10.10;99.90;;;;;;5099359;28;20118;-69
2022/09/27 00:12:56;;;;;;;9.52;1.30;;;10.00;99.90;;;;;;5116484;28;20046;-68
2022/09/27 00:15:22;;;;;;;5.20;1.40;;;10.00;99.90;;;;;;5119557;27;20043;-68
2022/09/27 00:17:50;;;;;;;9.40;1.80;;;10.00;99.90;;;;;;5100293;27;20045;-68
2022/09/27 00:20:18;;;;;;;5.25;1.40;;;9.90;99.90;;;;;;5137834;27;20050;-72
2022/09/27 00:22:43;;;;;;;4.65;1.20;;;9.90;99.90;;;;;;5138166;27;20043;-68
2022/09/27 00:25:09;;;;;;;9.73;1.42;;;9.80;99.90;;;;;;5137456;27;20043;-68
2022/09/27 00:27:35;;;;;;;4.72;1.90;;;9.80;99.90;;;;;;5117279;27;20051;-68
2022/09/27 00:30:00;;;;;;;12.35;1.60;;;9.80;99.90;;;;;;5135268;27;20043;-69
2022/09/27 00:32:26;;;;;;;6.85;1.50;;;9.70;99.90;;;;;;5115743;28;20036;-69
2022/09/27 00:34:51;;;;;;;4.75;1.20;;;9.70;99.90;;;;;;5116586;28;20056;-69
2022/09/27 00:37:17;;;;;;;6.45;1.23;;;9.70;99.90;;;;;;5116750;28;20071;-69
2022/09/27 00:39:43;;;;;;;5.65;1.30;;;9.60;99.90;;;;;;5105538;27;20050;-69
2022/09/27 00:42:10;;;;;;;;;;;9.60;99.90;;;;;;5137462;27;20046;-69
2022/09/27 00:44:38;;;;;;;11.45;2.05;;;9.50;99.90;;;;;;5137791;27;19918;-68
2022/09/27 00:47:22;;;;;;;8.98;1.20;;;9.40;99.90;;;;;;5135793;27;20038;-69
2022/09/27 00:50:11;;;;;;;4.22;1.05;;;9.60;99.90;;;;;;5116044;28;20551;-68
2022/09/27 00:52:57;;;;;;;3.67;0.88;;;9.40;99.90;;;;;;5113155;28;20104;-68
2022/09/27 00:55:45;;;;;;;4.70;0.98;;;9.30;99.90;;;;;;5128025;27;20046;-69
2022/09/27 00:58:14;;;;;;;4.13;0.70;;;9.30;99.90;;;;;;5123068;27;20486;-68
2022/09/27 01:00:46;;;;;;;6.97;1.30;;;9.30;99.90;;;;;;5134333;27;20082;-69
2022/09/27 01:03:20;;;;;;;5.13;1.02;;;9.20;99.90;;;;;;5131960;27;20043;-68
2022/09/27 01:05:45;;;;;;;6.63;1.35;;;9.20;99.90;;;;;;5116173;27;20087;-68
2022/09/27 01:08:11;;;;;;;3.15;0.85;;;9.20;99.90;;;;;;5115387;27;20102;-69
2022/09/27 01:10:54;;;;;;;0.70;0.70;;;9.20;99.90;;;;;;5134170;27;20051;-68
2022/09/27 01:13:25;;;;;;;4.15;0.90;;;9.20;99.90;;;;;;5133570;27;20054;-69
2022/09/27 01:16:17;;;;;;;4.40;1.10;;;9.30;99.90;;;;;;5133819;27;20042;-69
2022/09/27 01:19:00;;;;;;;2.40;0.65;;;9.20;99.90;;;;;;5112620;28;20381;-68
2022/09/27 01:21:47;;;;;;;6.75;1.13;;;9.30;99.90;;;;;;5123265;27;20043;-68
2022/09/27 01:24:18;;;;;;;1.73;0.40;;;9.30;99.90;;;;;;5133454;27;20043;-68
2022/09/27 01:26:53;;;;;;;5.10;0.80;;;9.30;99.90;;;;;;5133189;27;20468;-68
2022/09/27 01:29:21;;;;;;;4.82;0.80;;;9.30;99.90;;;;;;5114094;27;20047;-68
2022/09/27 01:32:07;;;;;;;2.50;0.60;;;9.30;99.90;;;;;;5146223;27;20334;-69
2022/09/27 01:34:44;;;;;;;6.60;1.20;;;9.30;99.90;;;;;;5132121;27;20406;-68
2022/09/27 01:37:18;;;;;;;4.05;0.80;;;9.30;99.90;;;;;;5132577;27;20046;-68
2022/09/27 01:40:06;;;;;;;5.07;0.93;;;9.30;99.90;;;;;;5124872;27;20040;-69
2022/09/27 01:42:43;;;;;;;1.33;0.75;;;9.30;99.90;;;;;;5132258;27;20387;-68
2022/09/27 01:45:12;;;;;;;;;;;9.30;99.90;;;;;;5132923;27;20054;-69
2022/09/27 01:47:44;;;;;;;5.75;0.93;;;9.30;99.90;;;;;;5130901;27;19915;-68
2022/09/27 01:50:16;;;;;;;1.45;0.60;;;9.30;99.90;;;;;;5132754;27;20114;-69
2022/09/27 01:52:49;;;;;;;2.85;0.90;;;9.30;99.90;;;;;;5115362;27;20395;-68
2022/09/27 01:55:18;;;;;;;1.05;0.80;;;9.30;99.90;;;;;;5132740;27;20095;-68
2022/09/27 01:57:53;;;;;;;2.72;1.00;;;9.30;99.90;;;;;;5128444;27;20039;-71
2022/09/27 02:00:20;;;;;;;4.82;1.08;;;9.30;99.90;;;;;;5130083;27;20615;-71
2022/09/27 02:02:55;;;;;;;3.30;0.80;;;9.30;99.90;;;;;;5094681;27;20051;-68
2022/09/27 02:05:28;;;;;;;1.93;0.87;;;9.30;99.90;;;;;;5132510;27;20498;-68
2022/09/27 02:08:01;;;;;;;3.45;0.57;;;9.30;99.90;;;;;;5114953;27;20284;-68
2022/09/27 02:10:34;;;;;;;3.78;0.65;;;9.30;99.90;;;;;;5114764;27;20047;-69
2022/09/27 02:13:06;;;;;;;2.75;1.13;;;9.30;99.90;;;;;;5132381;27;20114;-69
2022/09/27 02:15:47;;;;;;;1.90;0.75;;;9.30;99.90;;;;;;5117081;27;20044;-68
2022/09/27 02:18:27;;;;;;;2.55;0.50;;;9.30;99.90;;;;;;5109449;28;20031;-68
2022/09/27 02:20:59;;;;;;;3.53;0.82;;;9.30;99.90;;;;;;5112479;28;20035;-68
2022/09/27 02:23:31;;;;;;;7.00;1.15;;;9.30;99.90;;;;;;5128894;27;20079;-68
2022/09/27 02:26:02;;;;;;;2.58;0.57;;;9.20;99.90;;;;;;5113632;27;20093;-68
2022/09/27 02:28:34;;;;;;;0.85;0.60;;;9.20;99.90;;;;;;5112074;28;20040;-68
2022/09/27 02:31:00;;;;;;;1.15;0.77;;;9.20;99.90;;;;;;5121144;27;20484;-69
2022/09/27 02:33:33;;;;;;;;;;;9.20;99.90;;;;;;5131675;27;20051;-67
2022/09/27 02:35:59;;;;;;;0.93;0.65;;;9.20;99.90;;;;;;5114452;27;19919;-68
2022/09/27 02:38:25;;;;;;;4.40;1.10;;;9.20;99.90;;;;;;5131847;27;20552;-68
2022/09/27 02:40:50;;;;;;;9.68;0.90;;;9.20;99.90;;;;;;5132313;27;20130;-68
2022/09/27 02:43:17;;;;;;;5.22;1.10;;;9.30;99.90;;;;;;5130668;27;20051;-67
2022/09/27 02:45:59;;;;;;;2.85;0.60;;;9.20;99.90;;;;;;5122554;27;20079;-67
2022/09/27 02:48:38;;;;;;;3.80;0.70;;;9.20;99.90;;;;;;5130736;27;20039;-68
2022/09/27 02:51:49;;;;;;;4.47;0.68;;;9.20;99.90;;;;;;5111543;27;20468;-69
2022/09/27 02:54:30;;;;;;;2.10;0.65;;;9.30;99.90;;;;;;5047687;28;20120;-69
2022/09/27 02:56:59;;;;;;;2.58;0.68;;;9.20;99.90;;;;;;5108950;28;20046;-68
2022/09/27 02:59:52;;;;;;;0.50;0.50;;;9.30;99.90;;;;;;5110809;28;20136;-68
2022/09/27 03:02:44;;;;;;;6.90;0.90;;;9.30;99.90;;;;;;5109234;28;20047;-68
2022/09/27 03:05:35;;;;;;;5.30;1.05;;;9.30;99.90;;;;;;5111860;27;20508;-68
2022/09/27 03:08:02;;;;;;;3.95;0.65;;;9.20;99.90;;;;;;5082328;28;20087;-68
2022/09/27 03:10:29;;;;;;;1.65;0.45;;;9.20;99.90;;;;;;5110797;28;20044;-68
2022/09/27 03:12:57;;;;;;;1.88;1.23;;;9.10;99.90;;;;;;5110771;27;20520;-67
2022/09/27 03:15:23;;;;;;;1.60;0.47;;;9.10;99.90;;;;;;5131104;27;20050;-68
2022/09/27 03:17:49;;;;;;;1.52;1.38;;;9.10;99.90;;;;;;5111344;27;20039;-68
2022/09/27 03:20:14;;;;;;;3.40;0.70;;;9.00;99.90;;;;;;5131310;27;20043;-69
2022/09/27 03:22:41;;;;;;;6.13;0.75;;;9.00;99.90;;;;;;5132229;27;20046;-67
2022/09/27 03:25:07;;;;;;;8.80;0.98;;;9.00;99.90;;;;;;5102054;28;20488;-69
2022/09/27 03:27:33;;;;;;;0.82;0.43;;;9.00;99.90;;;;;;5110121;28;20623;-68
2022/09/27 03:29:59;;;;;;;3.22;0.45;;;9.00;99.90;;;;;;5122304;27;20124;-68
2022/09/27 03:32:25;;;;;;;2.78;1.10;;;9.00;99.90;;;;;;5109007;28;20051;-68
2022/09/27 03:34:53;;;;;;;2.53;0.52;;;8.90;99.90;;;;;;5110696;28;20051;-68
2022/09/27 03:37:20;;;;;;;0.77;0.60;;;8.90;99.90;;;;;;5110345;28;20480;-68
2022/09/27 03:39:46;;;;;;;2.85;0.60;;;8.90;99.90;;;;;;5111164;28;20054;-68
2022/09/27 03:42:12;;;;;;;0.68;0.50;;;8.90;99.90;;;;;;5110223;28;20073;-69
2022/09/27 03:44:37;;;;;;;2.17;0.60;;;9.00;99.90;;;;;;5113554;27;20035;-68
2022/09/27 03:47:03;;;;;;;3.45;0.68;;;8.90;99.90;;;;;;5110586;28;20075;-68
2022/09/27 03:49:29;;;;;;;3.28;0.70;;;8.80;99.90;;;;;;5116440;28;20046;-67
2022/09/27 03:51:54;;;;;;;1.60;0.50;;;8.80;99.90;;;;;;5092856;28;20075;-68
2022/09/27 03:54:20;;;;;;;2.20;0.80;;;8.80;99.90;;;;;;5106237;28;20051;-67
2022/09/27 03:56:46;;;;;;;0.65;0.57;;;8.80;99.90;;;;;;5092561;28;20134;-68
2022/09/27 03:59:11;;;;;;;4.80;0.73;;;8.80;99.90;;;;;;5075804;28;20052;-70
2022/09/27 04:01:37;;;;;;;1.95;0.57;;;8.70;99.90;;;;;;5108829;28;20043;-68
2022/09/27 04:04:04;;;;;;;2.80;0.60;;;8.70;99.90;;;;;;5130460;28;20122;-69
2022/09/27 04:06:30;;;;;;;7.22;1.00;;;8.60;99.90;;;;;;5130668;28;20258;-69
2022/09/27 04:08:56;;;;;;;3.38;0.60;;;8.60;99.90;;;;;;5130285;28;20488;-69
2022/09/27 04:11:24;;;;;;;0.70;0.70;;;8.50;99.90;;;;;;5128976;28;20118;-69
2022/09/27 04:13:50;;;;;;;4.55;0.70;;;8.50;99.90;;;;;;5112749;28;20053;-69
2022/09/27 04:16:16;;;;;;;0.50;0.50;;;8.40;99.90;;;;;;5129078;28;20447;-68
2022/09/27 04:18:42;;;;;;;0.77;0.50;;;8.50;99.90;;;;;;5111788;28;20096;-69
2022/09/27 04:21:08;;;;;;;1.33;0.60;;;8.40;99.90;;;;;;5131372;28;20031;-68
2022/09/27 04:23:35;;;;;;;2.97;0.70;;;8.40;99.90;;;;;;5130422;28;20081;-69
2022/09/27 04:26:01;;;;;;;2.75;0.73;;;8.40;99.90;;;;;;5132483;27;20461;-68
2022/09/27 04:28:29;;;;;;;;;;;8.50;99.90;;;;;;5134649;27;20126;-68
2022/09/27 04:30:55;;;;;;;1.52;0.40;;;8.40;99.90;;;;;;5134438;27;19923;-70
2022/09/27 04:33:21;;;;;;;1.95;0.68;;;8.40;99.90;;;;;;5125152;27;20042;-69
2022/09/27 04:38:31;;;;;;;2.72;0.75;;;8.40;99.90;;;;;;5113787;27;20112;-69
2022/09/27 04:41:00;;;;;;;2.28;0.65;;;8.40;99.90;;;;;;5116283;27;20039;-69
2022/09/27 04:43:28;;;;;;;3.47;0.60;;;8.50;99.90;;;;;;5133978;27;20043;-69
2022/09/27 04:45:54;;;;;;;4.15;1.15;;;8.40;99.90;;;;;;5133783;27;20039;-70
2022/09/27 04:48:19;;;;;;;2.50;0.70;;;8.50;99.90;;;;;;5120297;27;20093;-68
2022/09/27 04:50:45;;;;;;;5.45;1.02;;;8.40;99.90;;;;;;5117710;27;20051;-68
2022/09/27 04:53:14;;;;;;;2.58;0.70;;;8.50;99.90;;;;;;5122809;27;20050;-68
2022/09/27 04:55:45;;;;;;;2.90;0.80;;;8.50;99.90;;;;;;5123186;27;20108;-69
2022/09/27 04:58:10;;;;;;;3.15;0.90;;;8.40;99.90;;;;;;5123446;27;20038;-69
2022/09/27 05:00:36;;;;;;;2.17;1.08;;;8.40;99.90;;;;;;5096952;28;20577;-69
2022/09/27 05:03:02;;;;;;;9.38;1.00;;;8.40;99.90;;;;;;5111675;28;20039;-69
2022/09/27 05:05:27;;;;;;;5.95;0.65;;;8.40;99.90;;;;;;5094777;28;20050;-69
2022/09/27 05:07:53;;;;;;;1.98;0.60;;;8.50;99.90;;;;;;5113751;28;20096;-68
2022/09/27 05:10:19;;;;;;;;;;;8.40;99.90;;;;;;5114611;27;20042;-70
2022/09/27 05:12:45;;;;;;;0.98;0.60;;;8.40;99.90;;;;;;5124085;27;19920;-69
2022/09/27 05:15:10;;;;;;;1.38;0.70;;;8.40;99.90;;;;;;5113769;28;20043;-68
2022/09/27 05:17:36;;;;;;;3.10;0.70;;;8.40;99.90;;;;;;5113130;27;20047;-69
2022/09/27 05:20:03;;;;;;;0.55;0.55;;;8.40;99.90;;;;;;5134089;27;20050;-68
2022/09/27 05:22:29;;;;;;;5.47;0.77;;;8.40;99.90;;;;;;5108541;28;20052;-69
2022/09/27 05:24:55;;;;;;;4.57;0.82;;;8.40;99.90;;;;;;5142957;27;20038;-68
2022/09/27 05:27:20;;;;;;;3.50;0.52;;;8.40;99.90;;;;;;5126346;27;20115;-71
2022/09/27 05:29:46;;;;;;;1.95;0.77;;;8.40;99.90;;;;;;5149645;27;20160;-69
2022/09/27 05:32:12;;;;;;;;;;;8.50;99.90;;;;;;5143303;27;20116;-71
2022/09/27 05:34:38;;;;;;;2.65;0.50;;;8.50;99.90;;;;;;5120057;27;19923;-69
2022/09/27 05:37:04;;;;;;;0.85;0.65;;;8.40;99.90;;;;;;5133273;27;20039;-69
2022/09/27 05:39:29;;;;;;;1.55;0.50;;;8.60;99.90;;;;;;5104169;28;20062;-69
2022/09/27 05:41:56;;;;;;;1.27;0.60;;;8.50;99.90;;;;;;5112897;28;20383;-68
2022/09/27 05:44:22;;;;;;;0.60;0.60;;;8.50;99.90;;;;;;5097206;27;20043;-70
2022/09/27 05:46:48;;;;;;;1.98;1.15;;;8.50;99.90;;;;;;5114037;27;20043;-69
2022/09/27 05:49:13;;;;;;;1.52;0.75;;;8.60;99.90;;;;;;5132616;27;20053;-68
2022/09/27 05:51:40;;;;;;;1.95;0.70;;;8.50;99.90;;;;;;5132933;27;20039;-70
2022/09/27 05:54:05;;;;;;;;;;;8.50;99.90;;;;;;5120369;27;20039;-69
2022/09/27 05:56:31;;;;;;;3.55;0.70;;;8.50;99.90;;;;;;5098777;27;19928;-71
2022/09/27 05:58:57;;;;;;;2.92;0.98;;;8.50;99.90;;;;;;5114747;27;20092;-70
2022/09/27 06:01:26;;;;;;;2.75;0.90;;;8.50;99.90;;;;;;5131367;27;20043;-71
2022/09/27 06:03:52;;;;;;;4.20;0.82;;;8.50;99.90;;;;;;5131939;27;20054;-70
2022/09/27 06:06:18;;;;;;;2.78;0.70;;;8.40;99.90;;;;;;5114529;27;20047;-69
2022/09/27 06:08:44;;;;;;;0.60;0.60;;;8.40;99.90;;;;;;5132697;27;20043;-70
2022/09/27 06:11:12;;;;;;;1.00;0.90;;;8.40;99.90;;;;;;5132905;27;20078;-69
2022/09/27 06:13:38;;;;;;;0.82;0.60;;;8.40;99.90;;;;;;5132058;27;20376;-69
2022/09/27 06:16:05;;;;;;;2.40;0.90;;;8.40;99.90;;;;;;5131353;27;20042;-70
2022/09/27 06:18:31;;;;;;;1.05;0.73;;;8.30;99.90;;;;;;5129558;27;20030;-69
2022/09/27 06:21:04;;;;;;;3.10;0.70;;;8.40;99.90;;;;;;5118137;27;20088;-71
2022/09/27 06:23:31;;;;;;;2.95;0.98;;;8.40;99.90;;;;;;5119089;27;20093;-70
2022/09/27 06:26:04;;;;;;;1.52;0.75;;;8.40;99.90;;;;;;5111769;28;20418;-73
2022/09/27 06:28:30;;;;;;;1.98;0.70;;;8.40;99.90;;;;;;5093328;28;20366;-68
2022/09/27 06:30:56;;;;;;;2.30;0.95;;;8.40;99.90;;;;;;5110781;28;20044;-69
2022/09/27 06:33:21;;;;;;;1.02;0.70;;;8.40;99.90;;;;;;5111030;28;20051;-71
2022/09/27 06:35:48;;;;;;;0.88;0.70;;;8.50;99.90;;;;;;5111753;28;20048;-69
2022/09/27 06:38:16;;;;;;;0.50;0.50;;;8.50;99.90;;;;;;5111388;27;20078;-69
2022/09/27 06:40:46;;;;;;;1.80;0.90;;;8.60;99.90;;;;;;5129015;27;20093;-68
2022/09/27 06:43:18;;;;;;;1.38;0.80;;;8.60;99.90;;;;;;5123592;27;20042;-69
2022/09/27 06:45:43;;;;;;;1.42;0.90;;;8.60;99.90;;;;;;5146553;27;20657;-69
2022/09/27 06:48:11;;;;;;;3.60;1.00;;;8.70;99.90;;;;;;5144383;27;20035;-68
2022/09/27 06:50:39;;;;;;;1.15;0.80;;;8.60;99.90;;;;;;5142493;27;20073;-69
2022/09/27 06:53:09;;;;;;;1.70;0.80;;;8.70;99.90;;;;;;5149204;27;20352;-68
2022/09/27 06:55:35;;;;;;;8.50;1.00;;;8.80;99.90;;;;;;5128189;27;20471;-69
2022/09/27 07:00:52;;;;;;;6.53;1.00;;;8.80;99.90;;;;;;5145968;27;20637;-69
2022/09/27 07:03:19;;;;;;;3.78;0.80;;;9.00;99.90;;;;;;5144209;27;20074;-69
2022/09/27 07:05:54;;;;;;;2.53;0.80;;;9.00;99.90;;;;;;5151161;27;20240;-69
2022/09/27 07:08:20;;;;;;;1.38;0.82;;;9.10;99.90;;;;;;5140199;27;20516;-70
2022/09/27 07:10:46;;;;;;;2.92;0.73;;;9.20;99.90;;;;;;5127100;27;20039;-70
2022/09/27 07:13:11;;;;;;;2.72;0.85;;;9.20;99.90;;;;;;5151092;27;20130;-70
2022/09/27 07:15:40;;;;;;;2.45;0.95;;;9.30;99.90;;;;;;5147702;27;20035;-70
2022/09/27 07:18:06;;;;;;;2.50;0.70;;;9.20;99.90;;;;;;5131739;27;20251;-69
2022/09/27 07:20:36;;;;;;;12.77;1.00;;;9.30;99.90;;;;;;5141949;27;20050;-70
2022/09/27 07:23:03;;;;;;;6.35;1.25;;;9.30;99.90;;;;;;5141920;27;20038;-71
2022/09/27 07:25:29;;;;;;;1.42;0.80;;;9.30;99.90;;;;;;5146924;27;20043;-71
2022/09/27 07:28:00;;;;;;;3.67;0.80;;;9.20;99.90;;;;;;5150169;27;20038;-71
2022/09/27 07:30:26;;;;;;;6.10;1.35;;;9.20;99.90;;;;;;5150586;27;20046;-71
2022/09/27 07:32:58;;;;;;;3.30;0.63;;;9.30;99.90;;;;;;5147822;27;20060;-72
2022/09/27 07:35:24;;;;;;;3.40;0.80;;;9.30;99.90;;;;;;5149140;27;20483;-71
2022/09/27 07:37:50;;;;;;;;;;;9.30;99.90;;;;;;5141778;27;20092;-71
2022/09/27 07:40:16;;;;;;;7.05;1.05;;;9.30;99.90;;;;;;5141215;27;19923;-71
2022/09/27 07:42:41;;;;;;;2.50;0.75;;;9.30;99.90;;;;;;5124698;27;20039;-70
2022/09/27 07:45:08;;;;;;;2.85;0.98;;;9.30;99.90;;;;;;5148266;27;20034;-70
2022/09/27 07:47:36;;;;;;;2.63;0.90;;;9.40;99.90;;;;;;5143547;27;20043;-70
2022/09/27 07:50:04;;;;;;;1.15;1.05;;;9.40;99.90;;;;;;5149554;27;20042;-69
2022/09/27 07:52:29;;;;;;;3.55;0.88;;;9.50;99.90;;;;;;5142138;27;20091;-71
2022/09/27 07:54:55;;;;;;;4.50;1.27;;;9.50;99.90;;;;;;5147614;27;20051;-72
2022/09/27 07:57:22;;;;;;;3.60;1.13;;;9.60;99.90;;;;;;5145356;27;20523;-70
2022/09/27 07:59:48;;;;;;;1.92;0.77;;;9.60;99.90;;;;;;5150133;27;20045;-70
2022/09/27 08:02:16;;;;;;;6.75;1.20;;;9.60;99.90;;;;;;5143340;27;20383;-70
2022/09/27 08:04:47;;;;;;;2.65;0.70;;;9.60;99.90;;;;;;5149708;27;20030;-70
2022/09/27 08:07:14;;;;;;;3.28;0.70;;;9.60;99.90;;;;;;5135978;27;20043;-70
2022/09/27 08:09:39;;;;;;;3.13;0.70;;;9.60;99.90;;;;;;5122217;27;20486;-70
2022/09/27 08:12:05;;;;;;;4.03;0.93;;;9.70;99.90;;;;;;5116464;27;20110;-70
2022/09/27 08:14:30;;;;;;;4.72;0.80;;;9.70;99.90;;;;;;5149157;27;20042;-71
2022/09/27 08:16:56;;;;;;;2.45;0.68;;;9.60;99.90;;;;;;5114695;27;20091;-70
2022/09/27 08:19:22;;;;;;;5.32;0.80;;;9.70;99.90;;;;;;5125396;27;20064;-69
2022/09/27 08:21:50;;;;;;;1.40;0.43;;;9.70;99.90;;;;;;5148840;27;20100;-70
2022/09/27 08:24:15;;;;;;;3.80;0.90;;;9.70;99.90;;;;;;5113475;27;20046;-70
2022/09/27 08:26:41;;;;;;;3.50;0.80;;;9.70;99.90;;;;;;5154351;27;20114;-70
2022/09/27 08:29:07;;;;;;;1.45;0.65;;;9.80;99.90;;;;;;5138505;27;20050;-70
2022/09/27 08:31:32;;;;;;;0.70;0.70;;;9.90;99.90;;;;;;5114858;27;20112;-71
2022/09/27 08:33:58;;;;;;;1.65;0.90;;;9.90;99.90;;;;;;5133256;27;20090;-71
2022/09/27 08:36:24;;;;;;;1.00;0.65;;;10.10;99.90;;;;;;5128034;27;20077;-70
2022/09/27 08:38:50;;;;;;;9.45;0.73;;;10.10;99.90;;;;;;5110660;27;20116;-70
2022/09/27 08:41:24;;;;;;;4.03;0.70;;;10.30;99.90;;;;;;5134093;27;20074;-70
2022/09/27 08:44:07;;;;;;;2.13;0.60;;;10.50;99.90;;;;;;5148447;27;20489;-70
2022/09/27 08:47:09;;;;;;;1.67;0.60;;;10.60;99.90;;;;;;5133326;27;20047;-71
2022/09/27 08:49:39;;;;;;;0.98;0.52;;;10.70;99.90;;;;;;5146956;27;20379;-69
2022/09/27 08:52:12;;;;;;;3.10;0.65;;;10.80;99.90;;;;;;5149899;27;20386;-70
2022/09/27 08:54:38;;;;;;;2.03;0.82;;;10.90;99.90;;;;;;5139484;27;20038;-69
2022/09/27 08:57:11;;;;;;;2.95;0.60;;;11.00;99.90;;;;;;5154129;27;20034;-69
2022/09/27 08:59:44;;;;;;;0.80;0.63;;;11.10;99.90;;;;;;5141165;27;20414;-69
2022/09/27 09:02:19;;;;;;;3.72;0.60;;;11.30;99.90;;;;;;5132963;27;20045;-68
2022/09/27 09:04:49;;;;;;;3.30;0.70;;;11.30;99.90;;;;;;5126975;27;20036;-68
2022/09/27 09:07:25;;;;;;;0.52;0.52;;;11.40;99.90;;;;;;5116103;27;20035;-68
2022/09/27 09:13:19;;;;;;;1.15;0.50;;;11.60;99.90;;;;;;5108248;27;20050;-68
2022/09/27 09:16:01;;;;;;;0.65;0.43;;;11.70;99.90;;;;;;5133441;27;20520;-69
2022/09/27 09:18:36;;;;;;;0.98;0.60;;;11.70;99.90;;;;;;5129600;27;20032;-68
2022/09/27 09:21:20;;;;;;;0.68;0.43;;;11.80;99.90;;;;;;5115436;27;20069;-69
2022/09/27 09:24:03;;;;;;;1.45;0.40;;;11.80;99.90;;;;;;5130573;27;20476;-63
2022/09/27 09:26:29;;;;;;;0.30;0.30;;;11.80;99.90;;;;;;5115703;27;20051;-67
2022/09/27 09:29:06;;;;;;;0.40;0.40;;;11.70;99.90;;;;;;5112556;28;20046;-68
2022/09/27 09:32:01;;;;;;;1.42;0.30;;;11.60;99.90;;;;;;5123847;27;20051;-68
2022/09/27 09:34:33;;;;;;;1.80;0.40;;;11.40;99.90;;;;;;5120856;27;20138;-69
2022/09/27 09:37:15;;;;;;;0.22;0.22;;;11.20;99.90;;;;;;5119954;27;20103;-68
2022/09/27 09:39:47;;;;;;;1.90;0.32;;;11.10;99.90;;;;;;5123899;27;20051;-70
2022/09/27 09:42:45;;;;;;;2.38;0.40;;;11.00;99.90;;;;;;5104029;27;20047;-70
2022/09/27 09:45:16;;;;;;;2.53;0.43;;;11.00;99.90;;;;;;5096530;27;20135;-69
2022/09/27 09:47:46;;;;;;;2.53;0.43;;;11.10;99.90;;;;;;5100674;27;20041;-70
2022/09/27 09:50:26;;;;;;;3.35;0.50;;;11.10;99.90;;;;;;5140697;27;20402;-68
2022/09/27 09:53:21;;;;;;;2.15;0.50;;;11.20;99.90;;;;;;5132552;27;20039;-69
2022/09/27 09:55:56;;;;;;;5.13;0.80;;;11.40;99.90;;;;;;5122994;27;20039;-68
2022/09/27 09:58:38;;;;;;;1.38;0.57;;;11.70;99.90;;;;;;5133691;27;20050;-68
2022/09/27 10:01:19;;;;;;;3.10;0.60;;;11.80;99.90;;;;;;5146343;27;20034;-70
2022/09/27 10:03:45;;;;;;;1.33;0.63;;;11.60;99.90;;;;;;5121719;27;20043;-71
2022/09/27 10:06:13;;;;;;;0.82;0.60;;;11.30;99.90;;;;;;5147179;27;20050;-72
2022/09/27 10:08:39;;;;;;;1.92;0.50;;;11.10;99.90;;;;;;5146010;27;20743;-70
2022/09/27 10:11:06;;;;;;;0.55;0.40;;;11.00;99.90;;;;;;5129147;27;20035;-70
2022/09/27 10:13:35;;;;;;;1.05;0.45;;;11.00;99.90;;;;;;5136364;27;20050;-70
2022/09/27 10:16:12;;;;;;;2.00;0.50;;;10.90;99.90;;;;;;5132918;27;20035;-70
2022/09/27 10:18:40;;;;;;;0.45;0.30;;;10.90;99.90;;;;;;5145699;27;20511;-70
2022/09/27 10:21:20;;;;;;;1.60;0.50;;;10.90;99.90;;;;;;5145350;27;20042;-70
2022/09/27 10:24:15;;;;;;;0.45;0.35;;;11.00;99.90;;;;;;5137553;27;20039;-72
2022/09/27 10:26:44;;;;;;;3.67;0.45;;;11.10;99.90;;;;;;5140615;27;20033;-71
2022/09/27 10:29:20;;;;;;;0.32;0.32;;;11.20;99.90;;;;;;5146894;27;20550;-71
2022/09/27 10:31:47;;;;;;;;;;;11.30;99.90;;;;;;5131227;27;20051;-70
2022/09/27 10:34:19;;;;;;;0.57;0.30;;;11.40;99.90;;;;;;5131568;27;19915;-70
2022/09/27 10:36:45;;;;;;;0.30;0.30;;;11.60;99.90;;;;;;5144265;27;20414;-71
2022/09/27 10:39:22;;;;;;;0.30;0.30;;;11.70;99.90;;;;;;5131167;27;20125;-70
2022/09/27 10:41:48;;;;;;;0.57;0.30;;;11.90;99.90;;;;;;5124575;27;20126;-71
2022/09/27 10:44:27;;;;;;;0.60;0.40;;;12.00;99.90;;;;;;5138433;27;20416;-70
2022/09/27 10:46:57;;;;;;;0.60;0.40;;;12.20;99.90;;;;;;5143311;27;20046;-69
2022/09/27 10:49:34;;;;;;;0.22;0.20;;;12.40;99.90;;;;;;5148937;27;20038;-69
2022/09/27 10:52:03;;;;;;;2.72;0.40;;;12.50;99.90;;;;;;5144922;27;20041;-69
2022/09/27 10:54:32;;;;;;;0.40;0.40;;;12.60;99.90;;;;;;5136427;27;20047;-70
2022/09/27 10:57:12;;;;;;;0.57;0.30;;;12.70;99.90;;;;;;5133961;27;20379;-69
2022/09/27 10:59:44;;;;;;;0.30;0.30;;;12.70;99.90;;;;;;5146907;27;20406;-70
2022/09/27 11:02:38;;;;;;;0.20;0.20;;;12.90;99.90;;;;;;5147532;27;20535;-70
2022/09/27 11:05:12;;;;;;;2.45;0.50;;;13.10;99.90;;;;;;5147009;27;20050;-69
2022/09/27 11:07:52;;;;;;;0.30;0.30;;;13.20;99.90;;;;;;5125969;27;20074;-71
2022/09/27 11:10:30;;;;;;;0.30;0.30;;;13.20;99.90;;;;;;5113339;27;20043;-69
2022/09/27 11:13:17;;;;;;;2.58;0.40;;;13.20;99.90;;;;;;5130309;27;20051;-69
2022/09/27 11:16:18;;;;;;;3.03;0.40;;;13.20;99.90;;;;;;5110861;27;20460;-69
2022/09/27 11:18:59;;;;;;;0.40;0.40;;;13.50;99.90;;;;;;5109789;28;20046;-70
2022/09/27 11:21:25;;;;;;;1.65;0.30;;;14.00;99.90;;;;;;5124304;27;20395;-70
2022/09/27 11:24:06;;;;;;;0.28;0.28;;;14.50;99.90;;;;;;5110707;27;20621;-71
2022/09/27 11:27:20;;;;;;;0.40;0.40;;;14.80;99.90;;;;;;5110874;28;20051;-69
2022/09/27 11:29:57;;;;;;;1.45;0.52;;;15.10;99.90;;;;;;5083251;28;20476;-70
2022/09/27 11:32:32;;;;;;;0.40;0.40;;;15.20;99.90;;;;;;5122082;27;20388;-70
2022/09/27 11:35:34;;;;;;;4.03;0.98;;;15.30;99.90;;;;;;5150785;27;20050;-70
2022/09/27 11:38:16;;;;;;;1.77;0.30;;;15.50;99.90;;;;;;5092044;28;20468;-68
2022/09/27 11:41:04;;;;;;;4.07;0.60;;;15.30;99.90;;;;;;5111119;28;20044;-67
2022/09/27 11:44:04;;;;;;;0.70;0.40;;;15.00;99.90;;;;;;5132464;27;20042;-69
2022/09/27 11:46:35;;;;;;;1.80;0.50;;;14.30;99.90;;;;;;5129465;27;20039;-68
2022/09/27 11:49:19;;;;;;;3.92;0.30;;;13.60;99.90;;;;;;5127862;27;20100;-68
2022/09/27 11:51:56;;;;;;;0.30;0.30;;;13.00;99.90;;;;;;5110116;28;20074;-68
2022/09/27 11:54:31;;;;;;;;;;;12.50;99.90;;;;;;5139619;27;20125;-69
2022/09/27 11:57:02;;;;;;;2.30;0.30;;;12.20;99.90;;;;;;5128889;27;19920;-68
2022/09/27 11:59:51;;;;;;;0.63;0.40;;;12.00;99.90;;;;;;5129753;27;20058;-69
2022/09/27 12:02:38;;;;;;;0.40;0.25;;;12.00;99.90;;;;;;5094642;28;20132;-69
2022/09/27 12:05:31;;;;;;;1.45;0.20;;;12.30;99.90;;;;;;5091892;28;20058;-69
2022/09/27 12:08:21;;;;;;;0.60;0.40;;;12.90;99.90;;;;;;5110052;28;20043;-70
2022/09/27 12:10:52;;;;;;;2.03;0.50;;;13.60;99.90;;;;;;5121773;28;20052;-69
2022/09/27 12:13:31;;;;;;;0.28;0.20;;;14.00;99.90;;;;;;5110138;28;20056;-69
2022/09/27 12:15:58;;;;;;;0.57;0.40;;;14.40;99.90;;;;;;5089430;28;20038;-70
2022/09/27 12:18:28;;;;;;;0.28;0.20;;;14.70;99.90;;;;;;5106706;27;20035;-70
2022/09/27 12:20:54;;;;;;;2.72;0.30;;;14.90;99.90;;;;;;5129209;28;20454;-70
2022/09/27 12:23:28;;;;;;;0.17;0.17;;;14.90;99.90;;;;;;5127154;27;20039;-69
2022/09/27 12:26:02;;;;;;;1.65;0.30;;;14.90;99.90;;;;;;5125237;27;20426;-70
2022/09/27 12:28:54;;;;;;;0.35;0.20;;;15.20;99.90;;;;;;5107285;28;20730;-70
2022/09/27 12:31:29;;;;;;;0.32;0.28;;;15.70;99.90;;;;;;5108031;28;20600;-69
2022/09/27 12:34:17;;;;;;;0.30;0.30;;;15.90;99.90;;;;;;5123707;27;20100;-70
2022/09/27 12:36:52;;;;;;;1.38;0.28;;;16.30;99.90;;;;;;5127491;27;20051;-69
2022/09/27 12:39:24;;;;;;;0.60;0.32;;;16.50;99.90;;;;;;5109308;28;20055;-69
2022/09/27 12:42:06;;;;;;;0.10;0.10;;;16.50;99.90;;;;;;5128548;27;20160;-70
2022/09/27 12:44:38;;;;;;;0.85;0.40;;;16.60;99.90;;;;;;5124082;27;20066;-69
2022/09/27 12:47:07;;;;;;;0.20;0.20;;;16.50;99.90;;;;;;5125734;27;20054;-70
2022/09/27 12:49:59;;;;;;;0.68;0.25;;;16.40;99.90;;;;;;5130714;27;20055;-68
2022/09/27 12:52:30;;;;;;;0.22;0.17;;;16.50;99.90;;;;;;5132342;27;20130;-67
2022/09/27 12:55:21;;;;;;;0.15;0.15;;;17.00;99.90;;;;;;5129402;27;20071;-67
2022/09/27 12:58:30;;;;;;;0.40;0.25;;;17.50;99.90;;;;;;5124912;27;20096;-68
2022/09/27 13:01:00;;;;;;;1.20;0.40;;;17.70;99.90;;;;;;5100496;27;20062;-69
2022/09/27 13:04:03;;;;;;;0.82;0.50;;;17.60;99.90;;;;;;5153801;27;20497;-66
2022/09/27 13:06:41;;;;;;;0.80;0.30;;;17.40;99.90;;;;;;5154930;27;20054;-67
2022/09/27 13:09:09;;;;;;;0.47;0.32;;;16.90;99.90;;;;;;5154383;27;20038;-66
2022/09/27 13:12:09;;;;;;;1.63;0.57;;;16.50;99.90;;;;;;5154743;27;20167;-66
2022/09/27 13:14:42;;;;;;;2.70;1.08;;;16.20;99.90;;;;;;5153796;27;20387;-66
2022/09/27 13:17:39;;;;;;;1.35;0.73;;;15.90;99.90;;;;;;5130797;27;20050;-67
2022/09/27 13:20:26;;;;;;;1.13;0.45;;;15.80;99.90;;;;;;5133555;27;20082;-67
2022/09/27 13:22:56;;;;;;;4.72;0.43;;;15.90;99.90;;;;;;5095543;28;20499;-69
2022/09/27 13:25:53;;;;;;;1.10;0.38;;;16.00;99.90;;;;;;5112806;28;20062;-68
2022/09/27 13:28:30;;;;;;;3.67;0.70;;;15.80;99.90;;;;;;5112626;28;20262;-69
2022/09/27 13:31:05;;;;;;;0.65;0.30;;;15.40;99.90;;;;;;5094228;28;20056;-69